sensor_id;sensor_type;location;lat;lon;timestamp;P1;durP1;ratioP1;P2;durP2;ratioP2
793;SDS011;380;48.738;9.214;2024-01-07T00:00:19;19.38;;;14.25;;
793;SDS011;380;48.738;9.214;2024-01-07T00:02:45;20.23;;;14.63;;
793;SDS011;380;48.738;9.214;2024-01-07T00:05:11;16.30;;;13.10;;
793;SDS011;380;48.738;9.214;2024-01-07T00:07:37;20.15;;;13.93;;
793;SDS011;380;48.738;9.214;2024-01-07T00:10:03;20.40;;;14.73;;
793;SDS011;380;48.738;9.214;2024-01-07T00:12:30;17.20;;;14.35;;
793;SDS011;380;48.738;9.214;2024-01-07T00:14:56;20.73;;;14.20;;
793;SDS011;380;48.738;9.214;2024-01-07T00:17:23;19.33;;;14.32;;
793;SDS011;380;48.738;9.214;2024-01-07T00:19:49;21.58;;;15.95;;
793;SDS011;380;48.738;9.214;2024-01-07T00:22:14;22.02;;;15.32;;
793;SDS011;380;48.738;9.214;2024-01-07T00:24:40;22.60;;;14.90;;
793;SDS011;380;48.738;9.214;2024-01-07T00:27:06;17.85;;;13.95;;
793;SDS011;380;48.738;9.214;2024-01-07T00:29:33;22.83;;;14.23;;
793;SDS011;380;48.738;9.214;2024-01-07T00:32:00;19.63;;;14.93;;
793;SDS011;380;48.738;9.214;2024-01-07T00:34:26;18.13;;;12.27;;
793;SDS011;380;48.738;9.214;2024-01-07T00:36:52;16.10;;;12.25;;
793;SDS011;380;48.738;9.214;2024-01-07T00:39:18;21.13;;;13.57;;
793;SDS011;380;48.738;9.214;2024-01-07T00:41:44;16.77;;;12.55;;
793;SDS011;380;48.738;9.214;2024-01-07T00:44:10;15.65;;;12.75;;
793;SDS011;380;48.738;9.214;2024-01-07T00:46:36;19.98;;;13.48;;
793;SDS011;380;48.738;9.214;2024-01-07T00:49:02;17.70;;;13.48;;
793;SDS011;380;48.738;9.214;2024-01-07T00:51:27;15.73;;;12.27;;
793;SDS011;380;48.738;9.214;2024-01-07T00:53:53;17.20;;;14.80;;
793;SDS011;380;48.738;9.214;2024-01-07T00:56:19;16.88;;;12.75;;
793;SDS011;380;48.738;9.214;2024-01-07T00:58:45;18.30;;;12.75;;
793;SDS011;380;48.738;9.214;2024-01-07T01:01:11;18.45;;;13.68;;
793;SDS011;380;48.738;9.214;2024-01-07T01:03:37;17.45;;;12.82;;
793;SDS011;380;48.738;9.214;2024-01-07T01:06:03;16.00;;;13.10;;
793;SDS011;380;48.738;9.214;2024-01-07T01:08:29;20.02;;;14.55;;
793;SDS011;380;48.738;9.214;2024-01-07T01:10:55;20.13;;;14.25;;
793;SDS011;380;48.738;9.214;2024-01-07T01:13:21;20.63;;;13.05;;
793;SDS011;380;48.738;9.214;2024-01-07T01:15:47;18.92;;;13.73;;
793;SDS011;380;48.738;9.214;2024-01-07T01:18:13;19.90;;;14.48;;
793;SDS011;380;48.738;9.214;2024-01-07T01:20:39;22.17;;;13.90;;
793;SDS011;380;48.738;9.214;2024-01-07T01:23:05;19.60;;;14.15;;
793;SDS011;380;48.738;9.214;2024-01-07T01:25:31;20.08;;;13.85;;
793;SDS011;380;48.738;9.214;2024-01-07T01:27:57;19.05;;;14.18;;
793;SDS011;380;48.738;9.214;2024-01-07T01:30:23;16.92;;;13.73;;
793;SDS011;380;48.738;9.214;2024-01-07T01:32:49;19.63;;;13.10;;
793;SDS011;380;48.738;9.214;2024-01-07T01:35:15;17.02;;;14.43;;
793;SDS011;380;48.738;9.214;2024-01-07T01:37:41;20.55;;;13.88;;
793;SDS011;380;48.738;9.214;2024-01-07T01:40:07;15.77;;;13.63;;
793;SDS011;380;48.738;9.214;2024-01-07T01:42:33;17.15;;;13.00;;
793;SDS011;380;48.738;9.214;2024-01-07T01:44:59;17.02;;;12.82;;
793;SDS011;380;48.738;9.214;2024-01-07T01:47:27;16.50;;;13.20;;
793;SDS011;380;48.738;9.214;2024-01-07T01:49:53;19.27;;;13.43;;
793;SDS011;380;48.738;9.214;2024-01-07T01:52:19;20.30;;;14.48;;
793;SDS011;380;48.738;9.214;2024-01-07T01:54:45;22.30;;;13.45;;
793;SDS011;380;48.738;9.214;2024-01-07T01:57:13;19.92;;;14.57;;
793;SDS011;380;48.738;9.214;2024-01-07T01:59:41;19.23;;;14.18;;
793;SDS011;380;48.738;9.214;2024-01-07T02:02:08;19.00;;;15.00;;
793;SDS011;380;48.738;9.214;2024-01-07T02:04:34;18.83;;;14.25;;
793;SDS011;380;48.738;9.214;2024-01-07T02:07:00;21.35;;;15.20;;
793;SDS011;380;48.738;9.214;2024-01-07T02:09:26;20.90;;;14.52;;
793;SDS011;380;48.738;9.214;2024-01-07T02:12:04;22.33;;;16.88;;
793;SDS011;380;48.738;9.214;2024-01-07T02:14:30;23.60;;;15.93;;
793;SDS011;380;48.738;9.214;2024-01-07T02:16:56;22.65;;;15.15;;
793;SDS011;380;48.738;9.214;2024-01-07T02:19:22;20.52;;;15.98;;
793;SDS011;380;48.738;9.214;2024-01-07T02:21:50;21.27;;;15.20;;
793;SDS011;380;48.738;9.214;2024-01-07T02:24:16;20.23;;;16.02;;
793;SDS011;380;48.738;9.214;2024-01-07T02:26:42;22.00;;;16.83;;
793;SDS011;380;48.738;9.214;2024-01-07T02:29:08;23.15;;;15.52;;
793;SDS011;380;48.738;9.214;2024-01-07T02:31:34;26.02;;;16.90;;
793;SDS011;380;48.738;9.214;2024-01-07T02:34:00;20.75;;;15.48;;
793;SDS011;380;48.738;9.214;2024-01-07T02:36:26;23.77;;;16.33;;
793;SDS011;380;48.738;9.214;2024-01-07T02:38:52;23.48;;;16.65;;
793;SDS011;380;48.738;9.214;2024-01-07T02:41:18;23.23;;;15.63;;
793;SDS011;380;48.738;9.214;2024-01-07T02:43:45;23.80;;;16.27;;
793;SDS011;380;48.738;9.214;2024-01-07T02:46:11;18.75;;;14.90;;
793;SDS011;380;48.738;9.214;2024-01-07T02:48:37;23.20;;;14.57;;
793;SDS011;380;48.738;9.214;2024-01-07T02:51:03;15.52;;;11.73;;
793;SDS011;380;48.738;9.214;2024-01-07T02:53:32;22.17;;;16.88;;
793;SDS011;380;48.738;9.214;2024-01-07T02:55:58;23.83;;;17.00;;
793;SDS011;380;48.738;9.214;2024-01-07T02:58:24;20.67;;;14.95;;
793;SDS011;380;48.738;9.214;2024-01-07T03:00:50;23.08;;;16.98;;
793;SDS011;380;48.738;9.214;2024-01-07T03:03:16;20.60;;;15.15;;
793;SDS011;380;48.738;9.214;2024-01-07T03:05:42;20.63;;;15.77;;
793;SDS011;380;48.738;9.214;2024-01-07T03:08:08;24.45;;;16.88;;
793;SDS011;380;48.738;9.214;2024-01-07T03:10:34;21.05;;;16.38;;
793;SDS011;380;48.738;9.214;2024-01-07T03:13:00;26.02;;;18.67;;
793;SDS011;380;48.738;9.214;2024-01-07T03:15:26;18.23;;;15.18;;
793;SDS011;380;48.738;9.214;2024-01-07T03:17:52;20.63;;;15.88;;
793;SDS011;380;48.738;9.214;2024-01-07T03:20:18;19.90;;;15.20;;
793;SDS011;380;48.738;9.214;2024-01-07T03:22:44;19.50;;;14.48;;
793;SDS011;380;48.738;9.214;2024-01-07T03:25:10;24.42;;;16.75;;
793;SDS011;380;48.738;9.214;2024-01-07T03:27:36;15.25;;;12.82;;
793;SDS011;380;48.738;9.214;2024-01-07T03:30:02;22.15;;;16.50;;
793;SDS011;380;48.738;9.214;2024-01-07T03:32:28;17.50;;;15.65;;
793;SDS011;380;48.738;9.214;2024-01-07T03:34:54;23.90;;;18.65;;
793;SDS011;380;48.738;9.214;2024-01-07T03:37:20;17.63;;;13.32;;
793;SDS011;380;48.738;9.214;2024-01-07T03:39:46;19.35;;;14.30;;
793;SDS011;380;48.738;9.214;2024-01-07T03:42:12;22.88;;;14.13;;
793;SDS011;380;48.738;9.214;2024-01-07T03:44:38;20.85;;;13.75;;
793;SDS011;380;48.738;9.214;2024-01-07T03:47:05;18.85;;;15.50;;
793;SDS011;380;48.738;9.214;2024-01-07T03:49:31;24.23;;;13.98;;
793;SDS011;380;48.738;9.214;2024-01-07T03:51:57;18.80;;;14.63;;
793;SDS011;380;48.738;9.214;2024-01-07T03:54:23;19.40;;;14.98;;
793;SDS011;380;48.738;9.214;2024-01-07T03:56:49;20.17;;;14.30;;
793;SDS011;380;48.738;9.214;2024-01-07T03:59:15;18.83;;;14.20;;
793;SDS011;380;48.738;9.214;2024-01-07T04:01:41;18.67;;;14.98;;
793;SDS011;380;48.738;9.214;2024-01-07T04:04:07;17.63;;;14.98;;
793;SDS011;380;48.738;9.214;2024-01-07T04:06:33;23.27;;;15.23;;
793;SDS011;380;48.738;9.214;2024-01-07T04:08:59;23.42;;;15.23;;
793;SDS011;380;48.738;9.214;2024-01-07T04:11:25;19.25;;;14.32;;
793;SDS011;380;48.738;9.214;2024-01-07T04:13:51;17.95;;;13.77;;
793;SDS011;380;48.738;9.214;2024-01-07T04:16:17;19.50;;;14.65;;
793;SDS011;380;48.738;9.214;2024-01-07T04:18:43;21.13;;;13.82;;
793;SDS011;380;48.738;9.214;2024-01-07T04:21:09;19.15;;;14.02;;
793;SDS011;380;48.738;9.214;2024-01-07T04:23:35;18.85;;;13.88;;
793;SDS011;380;48.738;9.214;2024-01-07T04:26:01;20.35;;;15.55;;
793;SDS011;380;48.738;9.214;2024-01-07T04:28:27;18.15;;;14.93;;
793;SDS011;380;48.738;9.214;2024-01-07T04:30:53;15.77;;;13.40;;
793;SDS011;380;48.738;9.214;2024-01-07T04:33:19;16.92;;;14.25;;
793;SDS011;380;48.738;9.214;2024-01-07T04:35:45;16.25;;;14.38;;
793;SDS011;380;48.738;9.214;2024-01-07T04:38:11;16.60;;;13.23;;
793;SDS011;380;48.738;9.214;2024-01-07T04:40:37;16.02;;;12.48;;
793;SDS011;380;48.738;9.214;2024-01-07T04:43:03;16.83;;;13.13;;
793;SDS011;380;48.738;9.214;2024-01-07T04:45:29;16.35;;;12.93;;
793;SDS011;380;48.738;9.214;2024-01-07T04:47:55;18.48;;;14.63;;
793;SDS011;380;48.738;9.214;2024-01-07T04:50:21;14.82;;;12.07;;
793;SDS011;380;48.738;9.214;2024-01-07T04:52:48;16.83;;;12.95;;
793;SDS011;380;48.738;9.214;2024-01-07T04:55:13;17.88;;;14.48;;
793;SDS011;380;48.738;9.214;2024-01-07T04:57:39;14.25;;;12.52;;
793;SDS011;380;48.738;9.214;2024-01-07T05:00:06;16.05;;;13.30;;
793;SDS011;380;48.738;9.214;2024-01-07T05:02:32;16.13;;;12.80;;
793;SDS011;380;48.738;9.214;2024-01-07T05:04:57;17.13;;;13.52;;
793;SDS011;380;48.738;9.214;2024-01-07T05:07:23;16.08;;;12.88;;
793;SDS011;380;48.738;9.214;2024-01-07T05:09:49;17.35;;;13.80;;
793;SDS011;380;48.738;9.214;2024-01-07T05:12:15;20.48;;;13.18;;
793;SDS011;380;48.738;9.214;2024-01-07T05:14:41;21.58;;;14.00;;
793;SDS011;380;48.738;9.214;2024-01-07T05:17:08;17.00;;;14.05;;
793;SDS011;380;48.738;9.214;2024-01-07T05:19:33;17.38;;;14.27;;
793;SDS011;380;48.738;9.214;2024-01-07T05:22:00;22.98;;;14.80;;
793;SDS011;380;48.738;9.214;2024-01-07T05:24:26;16.15;;;13.43;;
793;SDS011;380;48.738;9.214;2024-01-07T05:26:52;17.90;;;14.00;;
793;SDS011;380;48.738;9.214;2024-01-07T05:29:18;20.55;;;12.60;;
793;SDS011;380;48.738;9.214;2024-01-07T05:31:44;14.43;;;12.43;;
793;SDS011;380;48.738;9.214;2024-01-07T05:34:10;18.65;;;13.30;;
793;SDS011;380;48.738;9.214;2024-01-07T05:36:36;17.90;;;13.38;;
793;SDS011;380;48.738;9.214;2024-01-07T05:39:02;15.82;;;13.27;;
793;SDS011;380;48.738;9.214;2024-01-07T05:41:29;18.23;;;12.15;;
793;SDS011;380;48.738;9.214;2024-01-07T05:43:55;18.67;;;13.43;;
793;SDS011;380;48.738;9.214;2024-01-07T05:46:21;19.40;;;13.45;;
793;SDS011;380;48.738;9.214;2024-01-07T05:48:47;19.05;;;12.80;;
793;SDS011;380;48.738;9.214;2024-01-07T05:51:14;16.33;;;12.68;;
793;SDS011;380;48.738;9.214;2024-01-07T05:53:40;15.70;;;11.73;;
793;SDS011;380;48.738;9.214;2024-01-07T05:56:06;16.13;;;12.68;;
793;SDS011;380;48.738;9.214;2024-01-07T05:58:33;16.05;;;12.27;;
793;SDS011;380;48.738;9.214;2024-01-07T06:00:59;15.98;;;13.30;;
793;SDS011;380;48.738;9.214;2024-01-07T06:03:25;14.20;;;12.10;;
793;SDS011;380;48.738;9.214;2024-01-07T06:05:51;18.75;;;12.35;;
793;SDS011;380;48.738;9.214;2024-01-07T06:08:17;18.30;;;13.15;;
793;SDS011;380;48.738;9.214;2024-01-07T06:10:43;13.65;;;9.98;;
793;SDS011;380;48.738;9.214;2024-01-07T06:13:09;17.33;;;12.60;;
793;SDS011;380;48.738;9.214;2024-01-07T06:15:35;14.00;;;11.75;;
793;SDS011;380;48.738;9.214;2024-01-07T06:18:01;15.20;;;11.55;;
793;SDS011;380;48.738;9.214;2024-01-07T06:20:27;15.27;;;12.07;;
793;SDS011;380;48.738;9.214;2024-01-07T06:22:53;17.38;;;12.23;;
793;SDS011;380;48.738;9.214;2024-01-07T06:25:19;18.25;;;12.77;;
793;SDS011;380;48.738;9.214;2024-01-07T06:27:51;18.35;;;15.05;;
793;SDS011;380;48.738;9.214;2024-01-07T06:30:19;15.63;;;13.45;;
793;SDS011;380;48.738;9.214;2024-01-07T06:32:45;15.10;;;13.13;;
793;SDS011;380;48.738;9.214;2024-01-07T06:35:13;17.63;;;13.77;;
793;SDS011;380;48.738;9.214;2024-01-07T06:37:38;17.25;;;12.40;;
793;SDS011;380;48.738;9.214;2024-01-07T06:40:05;15.40;;;12.98;;
793;SDS011;380;48.738;9.214;2024-01-07T06:42:31;16.05;;;12.60;;
793;SDS011;380;48.738;9.214;2024-01-07T06:44:57;18.27;;;13.75;;
793;SDS011;380;48.738;9.214;2024-01-07T06:47:22;17.55;;;13.20;;
793;SDS011;380;48.738;9.214;2024-01-07T06:49:48;18.80;;;14.20;;
793;SDS011;380;48.738;9.214;2024-01-07T06:52:14;18.75;;;14.30;;
793;SDS011;380;48.738;9.214;2024-01-07T06:54:40;20.15;;;14.10;;
793;SDS011;380;48.738;9.214;2024-01-07T06:57:06;16.63;;;13.88;;
793;SDS011;380;48.738;9.214;2024-01-07T06:59:32;16.67;;;12.85;;
793;SDS011;380;48.738;9.214;2024-01-07T07:01:58;16.88;;;12.60;;
793;SDS011;380;48.738;9.214;2024-01-07T07:04:24;15.77;;;12.20;;
793;SDS011;380;48.738;9.214;2024-01-07T07:06:50;15.68;;;12.98;;
793;SDS011;380;48.738;9.214;2024-01-07T07:09:16;19.50;;;14.68;;
793;SDS011;380;48.738;9.214;2024-01-07T07:11:42;21.58;;;12.30;;
793;SDS011;380;48.738;9.214;2024-01-07T07:14:08;17.92;;;14.57;;
793;SDS011;380;48.738;9.214;2024-01-07T07:16:34;14.95;;;11.98;;
793;SDS011;380;48.738;9.214;2024-01-07T07:19:00;16.10;;;12.93;;
793;SDS011;380;48.738;9.214;2024-01-07T07:21:26;14.02;;;12.52;;
793;SDS011;380;48.738;9.214;2024-01-07T07:23:52;15.82;;;13.70;;
793;SDS011;380;48.738;9.214;2024-01-07T07:26:18;18.42;;;13.20;;
793;SDS011;380;48.738;9.214;2024-01-07T07:28:44;15.43;;;12.52;;
793;SDS011;380;48.738;9.214;2024-01-07T07:31:13;15.60;;;12.55;;
793;SDS011;380;48.738;9.214;2024-01-07T07:33:39;13.95;;;12.40;;
793;SDS011;380;48.738;9.214;2024-01-07T07:36:05;16.20;;;12.52;;
793;SDS011;380;48.738;9.214;2024-01-07T07:38:31;18.23;;;13.13;;
793;SDS011;380;48.738;9.214;2024-01-07T07:40:57;15.20;;;11.77;;
793;SDS011;380;48.738;9.214;2024-01-07T07:43:23;13.93;;;12.35;;
793;SDS011;380;48.738;9.214;2024-01-07T07:45:50;16.25;;;13.30;;
793;SDS011;380;48.738;9.214;2024-01-07T07:48:16;15.85;;;12.25;;
793;SDS011;380;48.738;9.214;2024-01-07T07:50:42;18.38;;;12.48;;
793;SDS011;380;48.738;9.214;2024-01-07T07:53:08;14.30;;;12.80;;
793;SDS011;380;48.738;9.214;2024-01-07T07:55:34;15.00;;;12.52;;
793;SDS011;380;48.738;9.214;2024-01-07T07:58:00;17.30;;;12.77;;
793;SDS011;380;48.738;9.214;2024-01-07T08:00:26;14.18;;;11.90;;
793;SDS011;380;48.738;9.214;2024-01-07T08:02:52;13.80;;;11.20;;
793;SDS011;380;48.738;9.214;2024-01-07T08:05:18;13.38;;;11.10;;
793;SDS011;380;48.738;9.214;2024-01-07T08:07:43;15.23;;;11.75;;
793;SDS011;380;48.738;9.214;2024-01-07T08:10:09;16.05;;;12.82;;
793;SDS011;380;48.738;9.214;2024-01-07T08:12:35;17.65;;;12.43;;
793;SDS011;380;48.738;9.214;2024-01-07T08:15:01;15.68;;;12.05;;
793;SDS011;380;48.738;9.214;2024-01-07T08:17:27;12.50;;;10.45;;
793;SDS011;380;48.738;9.214;2024-01-07T08:19:53;14.45;;;10.48;;
793;SDS011;380;48.738;9.214;2024-01-07T08:22:19;16.45;;;12.65;;
793;SDS011;380;48.738;9.214;2024-01-07T08:24:45;12.88;;;10.57;;
793;SDS011;380;48.738;9.214;2024-01-07T08:27:11;14.32;;;10.88;;
793;SDS011;380;48.738;9.214;2024-01-07T08:29:37;13.85;;;11.15;;
793;SDS011;380;48.738;9.214;2024-01-07T08:32:03;12.18;;;9.50;;
793;SDS011;380;48.738;9.214;2024-01-07T08:34:29;12.98;;;11.55;;
793;SDS011;380;48.738;9.214;2024-01-07T08:36:55;18.95;;;13.05;;
793;SDS011;380;48.738;9.214;2024-01-07T08:39:21;16.40;;;11.70;;
793;SDS011;380;48.738;9.214;2024-01-07T08:41:47;12.68;;;10.85;;
793;SDS011;380;48.738;9.214;2024-01-07T08:44:13;13.68;;;10.40;;
793;SDS011;380;48.738;9.214;2024-01-07T08:46:39;14.15;;;10.88;;
793;SDS011;380;48.738;9.214;2024-01-07T08:49:05;14.10;;;8.63;;
793;SDS011;380;48.738;9.214;2024-01-07T08:51:31;14.90;;;10.52;;
793;SDS011;380;48.738;9.214;2024-01-07T08:53:57;13.27;;;10.50;;
793;SDS011;380;48.738;9.214;2024-01-07T08:56:24;17.58;;;11.02;;
793;SDS011;380;48.738;9.214;2024-01-07T08:58:50;13.73;;;12.25;;
793;SDS011;380;48.738;9.214;2024-01-07T09:01:17;11.82;;;9.80;;
793;SDS011;380;48.738;9.214;2024-01-07T09:03:43;15.00;;;9.95;;
793;SDS011;380;48.738;9.214;2024-01-07T09:06:09;14.75;;;10.07;;
793;SDS011;380;48.738;9.214;2024-01-07T09:08:35;12.07;;;10.45;;
793;SDS011;380;48.738;9.214;2024-01-07T09:11:03;11.30;;;9.23;;
793;SDS011;380;48.738;9.214;2024-01-07T09:13:31;11.00;;;9.20;;
793;SDS011;380;48.738;9.214;2024-01-07T09:15:57;14.77;;;11.32;;
793;SDS011;380;48.738;9.214;2024-01-07T09:18:23;12.50;;;9.13;;
793;SDS011;380;48.738;9.214;2024-01-07T09:20:49;12.07;;;8.50;;
793;SDS011;380;48.738;9.214;2024-01-07T09:23:15;13.48;;;7.78;;
793;SDS011;380;48.738;9.214;2024-01-07T09:25:41;11.18;;;8.52;;
793;SDS011;380;48.738;9.214;2024-01-07T09:28:07;10.38;;;7.55;;
793;SDS011;380;48.738;9.214;2024-01-07T09:30:33;9.60;;;5.20;;
793;SDS011;380;48.738;9.214;2024-01-07T09:32:59;5.57;;;4.78;;
793;SDS011;380;48.738;9.214;2024-01-07T09:35:24;9.63;;;7.25;;
793;SDS011;380;48.738;9.214;2024-01-07T09:37:50;10.05;;;6.85;;
793;SDS011;380;48.738;9.214;2024-01-07T09:40:17;10.82;;;7.25;;
793;SDS011;380;48.738;9.214;2024-01-07T09:42:44;8.55;;;6.30;;
793;SDS011;380;48.738;9.214;2024-01-07T09:45:10;11.77;;;7.85;;
793;SDS011;380;48.738;9.214;2024-01-07T09:47:37;9.07;;;6.78;;
793;SDS011;380;48.738;9.214;2024-01-07T09:50:05;7.65;;;6.28;;
793;SDS011;380;48.738;9.214;2024-01-07T09:52:31;6.75;;;5.53;;
793;SDS011;380;48.738;9.214;2024-01-07T09:55:00;6.03;;;4.95;;
793;SDS011;380;48.738;9.214;2024-01-07T09:57:27;9.70;;;6.35;;
793;SDS011;380;48.738;9.214;2024-01-07T09:59:53;8.68;;;6.32;;
793;SDS011;380;48.738;9.214;2024-01-07T10:02:20;8.15;;;6.22;;
793;SDS011;380;48.738;9.214;2024-01-07T10:04:47;10.45;;;6.82;;
793;SDS011;380;48.738;9.214;2024-01-07T10:07:14;7.88;;;6.47;;
793;SDS011;380;48.738;9.214;2024-01-07T10:09:40;6.95;;;5.15;;
793;SDS011;380;48.738;9.214;2024-01-07T10:12:09;7.47;;;6.38;;
793;SDS011;380;48.738;9.214;2024-01-07T10:14:37;6.65;;;6.00;;
793;SDS011;380;48.738;9.214;2024-01-07T10:17:13;10.68;;;6.25;;
793;SDS011;380;48.738;9.214;2024-01-07T10:19:40;9.15;;;6.32;;
793;SDS011;380;48.738;9.214;2024-01-07T10:22:08;6.10;;;3.65;;
793;SDS011;380;48.738;9.214;2024-01-07T10:24:35;6.78;;;5.38;;
793;SDS011;380;48.738;9.214;2024-01-07T10:27:05;7.18;;;5.72;;
793;SDS011;380;48.738;9.214;2024-01-07T10:29:31;8.02;;;6.03;;
793;SDS011;380;48.738;9.214;2024-01-07T10:31:57;8.07;;;6.07;;
793;SDS011;380;48.738;9.214;2024-01-07T10:34:24;8.60;;;6.10;;
793;SDS011;380;48.738;9.214;2024-01-07T10:36:52;7.53;;;5.60;;
793;SDS011;380;48.738;9.214;2024-01-07T10:39:21;9.82;;;5.65;;
793;SDS011;380;48.738;9.214;2024-01-07T10:41:47;6.70;;;5.28;;
793;SDS011;380;48.738;9.214;2024-01-07T10:44:13;10.50;;;5.30;;
793;SDS011;380;48.738;9.214;2024-01-07T10:46:39;9.80;;;6.35;;
793;SDS011;380;48.738;9.214;2024-01-07T10:49:11;7.63;;;4.97;;
793;SDS011;380;48.738;9.214;2024-01-07T10:51:41;9.23;;;7.05;;
793;SDS011;380;48.738;9.214;2024-01-07T10:54:08;8.75;;;6.85;;
793;SDS011;380;48.738;9.214;2024-01-07T10:56:42;7.68;;;6.85;;
793;SDS011;380;48.738;9.214;2024-01-07T10:59:10;7.88;;;5.97;;
793;SDS011;380;48.738;9.214;2024-01-07T11:01:36;10.68;;;8.25;;
793;SDS011;380;48.738;9.214;2024-01-07T11:06:43;9.65;;;6.75;;
793;SDS011;380;48.738;9.214;2024-01-07T11:09:14;11.45;;;7.90;;
793;SDS011;380;48.738;9.214;2024-01-07T11:14:33;9.98;;;8.77;;
793;SDS011;380;48.738;9.214;2024-01-07T11:19:25;6.32;;;4.68;;
793;SDS011;380;48.738;9.214;2024-01-07T11:21:51;9.70;;;7.77;;
793;SDS011;380;48.738;9.214;2024-01-07T11:24:37;11.70;;;7.38;;
793;SDS011;380;48.738;9.214;2024-01-07T11:27:03;8.25;;;6.75;;
793;SDS011;380;48.738;9.214;2024-01-07T11:29:31;10.38;;;7.60;;
793;SDS011;380;48.738;9.214;2024-01-07T11:31:57;10.32;;;6.30;;
793;SDS011;380;48.738;9.214;2024-01-07T11:34:42;7.18;;;6.28;;
793;SDS011;380;48.738;9.214;2024-01-07T11:37:11;8.38;;;6.57;;
793;SDS011;380;48.738;9.214;2024-01-07T11:39:39;9.70;;;7.70;;
793;SDS011;380;48.738;9.214;2024-01-07T11:42:04;7.65;;;6.18;;
793;SDS011;380;48.738;9.214;2024-01-07T11:44:33;6.85;;;5.38;;
793;SDS011;380;48.738;9.214;2024-01-07T11:46:59;11.35;;;7.32;;
793;SDS011;380;48.738;9.214;2024-01-07T11:49:24;11.13;;;7.50;;
793;SDS011;380;48.738;9.214;2024-01-07T11:51:50;10.82;;;7.95;;
793;SDS011;380;48.738;9.214;2024-01-07T11:54:16;7.55;;;5.68;;
793;SDS011;380;48.738;9.214;2024-01-07T11:56:43;13.27;;;5.45;;
793;SDS011;380;48.738;9.214;2024-01-07T11:59:09;11.13;;;6.35;;
793;SDS011;380;48.738;9.214;2024-01-07T12:01:35;7.28;;;5.68;;
793;SDS011;380;48.738;9.214;2024-01-07T12:04:01;8.07;;;6.78;;
793;SDS011;380;48.738;9.214;2024-01-07T12:06:27;10.35;;;7.93;;
793;SDS011;380;48.738;9.214;2024-01-07T12:08:53;8.77;;;7.18;;
793;SDS011;380;48.738;9.214;2024-01-07T12:11:19;9.70;;;7.70;;
793;SDS011;380;48.738;9.214;2024-01-07T12:13:45;9.45;;;7.32;;
793;SDS011;380;48.738;9.214;2024-01-07T12:16:11;8.25;;;6.47;;
793;SDS011;380;48.738;9.214;2024-01-07T12:18:38;9.63;;;7.07;;
793;SDS011;380;48.738;9.214;2024-01-07T12:21:04;9.60;;;7.43;;
793;SDS011;380;48.738;9.214;2024-01-07T12:23:34;7.55;;;5.72;;
793;SDS011;380;48.738;9.214;2024-01-07T12:26:10;6.40;;;4.57;;
793;SDS011;380;48.738;9.214;2024-01-07T12:28:37;7.80;;;7.00;;
793;SDS011;380;48.738;9.214;2024-01-07T12:31:04;10.33;;;7.80;;
793;SDS011;380;48.738;9.214;2024-01-07T12:33:30;9.15;;;6.75;;
793;SDS011;380;48.738;9.214;2024-01-07T12:35:56;9.23;;;5.65;;
793;SDS011;380;48.738;9.214;2024-01-07T12:38:26;9.55;;;7.72;;
793;SDS011;380;48.738;9.214;2024-01-07T12:40:52;9.30;;;7.97;;
793;SDS011;380;48.738;9.214;2024-01-07T12:43:18;8.98;;;7.50;;
793;SDS011;380;48.738;9.214;2024-01-07T12:45:45;9.47;;;7.57;;
793;SDS011;380;48.738;9.214;2024-01-07T12:48:14;9.40;;;7.60;;
793;SDS011;380;48.738;9.214;2024-01-07T12:50:40;10.35;;;7.72;;
793;SDS011;380;48.738;9.214;2024-01-07T12:53:06;11.27;;;7.90;;
793;SDS011;380;48.738;9.214;2024-01-07T12:55:32;10.03;;;6.57;;
793;SDS011;380;48.738;9.214;2024-01-07T12:57:58;9.83;;;8.07;;
793;SDS011;380;48.738;9.214;2024-01-07T13:00:24;10.77;;;8.20;;
793;SDS011;380;48.738;9.214;2024-01-07T13:02:51;12.00;;;8.68;;
793;SDS011;380;48.738;9.214;2024-01-07T13:05:17;11.73;;;8.27;;
793;SDS011;380;48.738;9.214;2024-01-07T13:07:43;10.20;;;8.10;;
793;SDS011;380;48.738;9.214;2024-01-07T13:10:09;7.63;;;6.03;;
793;SDS011;380;48.738;9.214;2024-01-07T13:12:35;9.93;;;8.27;;
793;SDS011;380;48.738;9.214;2024-01-07T13:15:02;7.97;;;7.17;;
793;SDS011;380;48.738;9.214;2024-01-07T13:17:28;10.93;;;8.70;;
793;SDS011;380;48.738;9.214;2024-01-07T13:19:55;10.73;;;9.50;;
793;SDS011;380;48.738;9.214;2024-01-07T13:22:21;10.50;;;9.33;;
793;SDS011;380;48.738;9.214;2024-01-07T13:24:47;13.00;;;10.13;;
793;SDS011;380;48.738;9.214;2024-01-07T13:27:13;10.23;;;8.17;;
793;SDS011;380;48.738;9.214;2024-01-07T13:29:39;8.73;;;7.03;;
793;SDS011;380;48.738;9.214;2024-01-07T13:32:06;11.17;;;6.23;;
793;SDS011;380;48.738;9.214;2024-01-07T13:34:32;9.18;;;8.27;;
793;SDS011;380;48.738;9.214;2024-01-07T13:36:58;11.73;;;9.23;;
793;SDS011;380;48.738;9.214;2024-01-07T13:39:24;7.30;;;5.90;;
793;SDS011;380;48.738;9.214;2024-01-07T13:41:50;13.37;;;9.43;;
793;SDS011;380;48.738;9.214;2024-01-07T13:44:16;12.73;;;10.40;;
793;SDS011;380;48.738;9.214;2024-01-07T13:46:45;10.50;;;9.13;;
793;SDS011;380;48.738;9.214;2024-01-07T13:49:12;12.13;;;9.50;;
793;SDS011;380;48.738;9.214;2024-01-07T13:51:38;11.23;;;9.97;;
793;SDS011;380;48.738;9.214;2024-01-07T13:54:04;12.00;;;10.53;;
793;SDS011;380;48.738;9.214;2024-01-07T13:56:31;15.40;;;9.67;;
793;SDS011;380;48.738;9.214;2024-01-07T13:58:56;11.07;;;8.07;;
793;SDS011;380;48.738;9.214;2024-01-07T14:01:22;9.27;;;6.27;;
793;SDS011;380;48.738;9.214;2024-01-07T14:03:51;10.73;;;9.63;;
793;SDS011;380;48.738;9.214;2024-01-07T14:06:17;13.23;;;10.77;;
793;SDS011;380;48.738;9.214;2024-01-07T14:08:43;6.77;;;5.57;;
793;SDS011;380;48.738;9.214;2024-01-07T14:11:09;11.70;;;9.60;;
793;SDS011;380;48.738;9.214;2024-01-07T14:13:35;9.03;;;7.80;;
793;SDS011;380;48.738;9.214;2024-01-07T14:16:01;17.00;;;7.10;;
793;SDS011;380;48.738;9.214;2024-01-07T14:18:27;14.73;;;10.27;;
793;SDS011;380;48.738;9.214;2024-01-07T14:20:54;15.70;;;11.53;;
793;SDS011;380;48.738;9.214;2024-01-07T14:23:20;16.93;;;11.90;;
793;SDS011;380;48.738;9.214;2024-01-07T14:25:46;15.23;;;11.33;;
793;SDS011;380;48.738;9.214;2024-01-07T14:28:11;13.87;;;11.30;;
793;SDS011;380;48.738;9.214;2024-01-07T14:30:40;13.97;;;11.33;;
793;SDS011;380;48.738;9.214;2024-01-07T14:33:06;14.77;;;9.13;;
793;SDS011;380;48.738;9.214;2024-01-07T14:35:32;15.13;;;12.17;;
793;SDS011;380;48.738;9.214;2024-01-07T14:37:58;12.10;;;10.80;;
793;SDS011;380;48.738;9.214;2024-01-07T14:40:25;10.33;;;9.30;;
793;SDS011;380;48.738;9.214;2024-01-07T14:42:51;16.63;;;12.33;;
793;SDS011;380;48.738;9.214;2024-01-07T14:45:26;17.40;;;13.63;;
793;SDS011;380;48.738;9.214;2024-01-07T14:47:52;12.33;;;10.03;;
793;SDS011;380;48.738;9.214;2024-01-07T14:50:18;15.97;;;13.50;;
793;SDS011;380;48.738;9.214;2024-01-07T14:52:44;15.30;;;13.37;;
793;SDS011;380;48.738;9.214;2024-01-07T14:55:10;14.10;;;12.60;;
793;SDS011;380;48.738;9.214;2024-01-07T14:57:37;14.97;;;12.30;;
793;SDS011;380;48.738;9.214;2024-01-07T15:00:03;13.90;;;11.47;;
793;SDS011;380;48.738;9.214;2024-01-07T15:02:30;18.63;;;13.33;;
793;SDS011;380;48.738;9.214;2024-01-07T15:04:56;20.93;;;14.53;;
793;SDS011;380;48.738;9.214;2024-01-07T15:07:22;15.57;;;13.60;;
793;SDS011;380;48.738;9.214;2024-01-07T15:09:48;18.63;;;14.03;;
793;SDS011;380;48.738;9.214;2024-01-07T15:12:14;17.90;;;13.17;;
793;SDS011;380;48.738;9.214;2024-01-07T15:14:40;17.07;;;12.63;;
793;SDS011;380;48.738;9.214;2024-01-07T15:17:06;18.13;;;12.80;;
793;SDS011;380;48.738;9.214;2024-01-07T15:19:32;15.80;;;9.97;;
793;SDS011;380;48.738;9.214;2024-01-07T15:21:59;15.87;;;12.57;;
793;SDS011;380;48.738;9.214;2024-01-07T15:24:25;10.50;;;8.83;;